sensor_id;sensor_type;location;lat;lon;timestamp;P1;durP1;ratioP1;P2;durP2;ratioP2
67274;SDS011;55463;52.324;5.122;2024-01-30T00:01:54;24.33;;;12.60;;
67274;SDS011;55463;52.324;5.122;2024-01-30T00:04:20;22.52;;;13.32;;
67274;SDS011;55463;52.324;5.122;2024-01-30T00:06:46;18.75;;;12.15;;
67274;SDS011;55463;52.324;5.122;2024-01-30T00:09:11;20.95;;;12.70;;
67274;SDS011;55463;52.324;5.122;2024-01-30T00:11:37;22.45;;;12.85;;
67274;SDS011;55463;52.324;5.122;2024-01-30T00:14:03;18.95;;;12.18;;
67274;SDS011;55463;52.324;5.122;2024-01-30T00:16:29;22.73;;;13.05;;
67274;SDS011;55463;52.324;5.122;2024-01-30T00:18:54;19.58;;;12.88;;
67274;SDS011;55463;52.324;5.122;2024-01-30T00:21:20;18.73;;;12.15;;
67274;SDS011;55463;52.324;5.122;2024-01-30T00:23:45;19.63;;;12.55;;
67274;SDS011;55463;52.324;5.122;2024-01-30T00:26:11;20.00;;;12.02;;
67274;SDS011;55463;52.324;5.122;2024-01-30T00:28:37;21.88;;;12.77;;
67274;SDS011;55463;52.324;5.122;2024-01-30T00:31:03;20.90;;;12.65;;
67274;SDS011;55463;52.324;5.122;2024-01-30T00:33:29;18.10;;;12.05;;
67274;SDS011;55463;52.324;5.122;2024-01-30T00:35:54;19.38;;;13.00;;
67274;SDS011;55463;52.324;5.122;2024-01-30T00:38:20;19.75;;;12.48;;
67274;SDS011;55463;52.324;5.122;2024-01-30T00:40:45;18.33;;;12.55;;
67274;SDS011;55463;52.324;5.122;2024-01-30T00:43:11;20.73;;;12.63;;
67274;SDS011;55463;52.324;5.122;2024-01-30T00:45:36;19.25;;;13.05;;
67274;SDS011;55463;52.324;5.122;2024-01-30T00:48:02;19.73;;;12.32;;
67274;SDS011;55463;52.324;5.122;2024-01-30T00:50:27;19.58;;;11.82;;
67274;SDS011;55463;52.324;5.122;2024-01-30T00:52:53;23.67;;;11.98;;
67274;SDS011;55463;52.324;5.122;2024-01-30T00:55:18;19.63;;;11.90;;
67274;SDS011;55463;52.324;5.122;2024-01-30T00:57:43;19.10;;;11.63;;
67274;SDS011;55463;52.324;5.122;2024-01-30T01:00:09;21.65;;;12.32;;
67274;SDS011;55463;52.324;5.122;2024-01-30T01:02:35;20.50;;;11.63;;
67274;SDS011;55463;52.324;5.122;2024-01-30T01:05:01;19.33;;;11.85;;
67274;SDS011;55463;52.324;5.122;2024-01-30T01:07:26;18.00;;;11.50;;
67274;SDS011;55463;52.324;5.122;2024-01-30T01:09:52;18.58;;;11.80;;
67274;SDS011;55463;52.324;5.122;2024-01-30T01:12:17;17.70;;;11.32;;
67274;SDS011;55463;52.324;5.122;2024-01-30T01:14:43;20.45;;;12.30;;
67274;SDS011;55463;52.324;5.122;2024-01-30T01:17:08;21.35;;;12.43;;
67274;SDS011;55463;52.324;5.122;2024-01-30T01:19:33;19.67;;;10.88;;
67274;SDS011;55463;52.324;5.122;2024-01-30T01:21:59;18.52;;;10.93;;
67274;SDS011;55463;52.324;5.122;2024-01-30T01:24:24;22.00;;;11.20;;
67274;SDS011;55463;52.324;5.122;2024-01-30T01:26:50;18.90;;;10.93;;
67274;SDS011;55463;52.324;5.122;2024-01-30T01:29:15;21.52;;;11.73;;
67274;SDS011;55463;52.324;5.122;2024-01-30T01:31:41;17.63;;;11.35;;
67274;SDS011;55463;52.324;5.122;2024-01-30T01:34:09;17.20;;;11.00;;
67274;SDS011;55463;52.324;5.122;2024-01-30T01:36:35;16.25;;;10.55;;
67274;SDS011;55463;52.324;5.122;2024-01-30T01:39:01;16.25;;;10.85;;
67274;SDS011;55463;52.324;5.122;2024-01-30T01:41:31;16.50;;;10.73;;
67274;SDS011;55463;52.324;5.122;2024-01-30T01:43:57;15.00;;;10.93;;
67274;SDS011;55463;52.324;5.122;2024-01-30T01:46:22;17.05;;;10.60;;
67274;SDS011;55463;52.324;5.122;2024-01-30T01:48:48;19.77;;;11.07;;
67274;SDS011;55463;52.324;5.122;2024-01-30T01:51:14;15.95;;;10.32;;
67274;SDS011;55463;52.324;5.122;2024-01-30T01:53:40;17.38;;;10.45;;
67274;SDS011;55463;52.324;5.122;2024-01-30T01:56:06;18.75;;;10.82;;
67274;SDS011;55463;52.324;5.122;2024-01-30T01:58:31;17.55;;;10.85;;
67274;SDS011;55463;52.324;5.122;2024-01-30T02:00:57;15.93;;;10.43;;
67274;SDS011;55463;52.324;5.122;2024-01-30T02:03:24;18.50;;;10.38;;
67274;SDS011;55463;52.324;5.122;2024-01-30T02:05:52;19.42;;;10.80;;
67274;SDS011;55463;52.324;5.122;2024-01-30T02:08:18;21.13;;;10.30;;
67274;SDS011;55463;52.324;5.122;2024-01-30T02:10:44;20.23;;;10.77;;
67274;SDS011;55463;52.324;5.122;2024-01-30T02:13:09;16.15;;;10.30;;
67274;SDS011;55463;52.324;5.122;2024-01-30T02:15:34;19.52;;;10.95;;
67274;SDS011;55463;52.324;5.122;2024-01-30T02:18:00;15.57;;;10.15;;
67274;SDS011;55463;52.324;5.122;2024-01-30T02:20:25;17.98;;;9.98;;
67274;SDS011;55463;52.324;5.122;2024-01-30T02:22:54;17.15;;;10.38;;
67274;SDS011;55463;52.324;5.122;2024-01-30T02:25:29;17.13;;;10.07;;
67274;SDS011;55463;52.324;5.122;2024-01-30T02:27:58;15.88;;;9.88;;
67274;SDS011;55463;52.324;5.122;2024-01-30T02:30:24;16.13;;;9.57;;
67274;SDS011;55463;52.324;5.122;2024-01-30T02:32:49;19.38;;;9.85;;
67274;SDS011;55463;52.324;5.122;2024-01-30T02:35:14;17.33;;;10.18;;
67274;SDS011;55463;52.324;5.122;2024-01-30T02:37:40;15.43;;;9.98;;
67274;SDS011;55463;52.324;5.122;2024-01-30T02:40:05;17.08;;;9.80;;
67274;SDS011;55463;52.324;5.122;2024-01-30T02:42:31;15.75;;;9.90;;
67274;SDS011;55463;52.324;5.122;2024-01-30T02:44:57;21.30;;;10.63;;
67274;SDS011;55463;52.324;5.122;2024-01-30T02:47:22;15.15;;;10.15;;
67274;SDS011;55463;52.324;5.122;2024-01-30T02:49:47;17.10;;;9.38;;
67274;SDS011;55463;52.324;5.122;2024-01-30T02:52:13;14.30;;;9.73;;
67274;SDS011;55463;52.324;5.122;2024-01-30T02:54:38;20.60;;;10.05;;
67274;SDS011;55463;52.324;5.122;2024-01-30T02:57:04;16.42;;;9.55;;
67274;SDS011;55463;52.324;5.122;2024-01-30T02:59:29;17.70;;;10.90;;
67274;SDS011;55463;52.324;5.122;2024-01-30T03:01:55;18.98;;;9.80;;
67274;SDS011;55463;52.324;5.122;2024-01-30T03:04:20;16.88;;;10.13;;
67274;SDS011;55463;52.324;5.122;2024-01-30T03:06:45;15.68;;;9.75;;
67274;SDS011;55463;52.324;5.122;2024-01-30T03:09:12;16.80;;;10.57;;
67274;SDS011;55463;52.324;5.122;2024-01-30T03:11:37;15.38;;;8.85;;
67274;SDS011;55463;52.324;5.122;2024-01-30T03:14:03;13.02;;;9.70;;
67274;SDS011;55463;52.324;5.122;2024-01-30T03:16:29;14.15;;;9.40;;
67274;SDS011;55463;52.324;5.122;2024-01-30T03:18:54;15.15;;;9.30;;
67274;SDS011;55463;52.324;5.122;2024-01-30T03:21:20;14.38;;;9.38;;
67274;SDS011;55463;52.324;5.122;2024-01-30T03:23:45;16.38;;;10.10;;
67274;SDS011;55463;52.324;5.122;2024-01-30T03:26:10;14.70;;;9.45;;
67274;SDS011;55463;52.324;5.122;2024-01-30T03:28:37;18.67;;;10.18;;
67274;SDS011;55463;52.324;5.122;2024-01-30T03:31:03;17.50;;;9.57;;
67274;SDS011;55463;52.324;5.122;2024-01-30T03:33:28;16.05;;;9.35;;
67274;SDS011;55463;52.324;5.122;2024-01-30T03:35:53;16.48;;;10.00;;
67274;SDS011;55463;52.324;5.122;2024-01-30T03:38:19;16.65;;;9.10;;
67274;SDS011;55463;52.324;5.122;2024-01-30T03:40:44;16.15;;;9.23;;
67274;SDS011;55463;52.324;5.122;2024-01-30T03:43:09;16.42;;;9.93;;
67274;SDS011;55463;52.324;5.122;2024-01-30T03:45:35;11.85;;;9.00;;
67274;SDS011;55463;52.324;5.122;2024-01-30T03:48:00;14.65;;;9.27;;
67274;SDS011;55463;52.324;5.122;2024-01-30T03:50:26;14.95;;;9.93;;
67274;SDS011;55463;52.324;5.122;2024-01-30T03:52:51;19.40;;;9.73;;
67274;SDS011;55463;52.324;5.122;2024-01-30T03:55:16;12.98;;;9.02;;
67274;SDS011;55463;52.324;5.122;2024-01-30T03:57:42;16.15;;;9.27;;
67274;SDS011;55463;52.324;5.122;2024-01-30T04:00:07;15.70;;;9.32;;
67274;SDS011;55463;52.324;5.122;2024-01-30T04:02:33;13.95;;;9.77;;
67274;SDS011;55463;52.324;5.122;2024-01-30T04:04:59;17.52;;;10.32;;
67274;SDS011;55463;52.324;5.122;2024-01-30T04:07:24;15.57;;;9.60;;
67274;SDS011;55463;52.324;5.122;2024-01-30T04:09:49;14.30;;;9.55;;
67274;SDS011;55463;52.324;5.122;2024-01-30T04:12:15;18.75;;;9.70;;
67274;SDS011;55463;52.324;5.122;2024-01-30T04:14:40;19.42;;;10.10;;
67274;SDS011;55463;52.324;5.122;2024-01-30T04:17:05;15.27;;;9.18;;
67274;SDS011;55463;52.324;5.122;2024-01-30T04:19:31;17.10;;;10.70;;
67274;SDS011;55463;52.324;5.122;2024-01-30T04:21:56;19.50;;;9.77;;
67274;SDS011;55463;52.324;5.122;2024-01-30T04:24:22;15.05;;;8.35;;
67274;SDS011;55463;52.324;5.122;2024-01-30T04:26:47;17.73;;;9.55;;
67274;SDS011;55463;52.324;5.122;2024-01-30T04:29:12;15.43;;;9.45;;
67274;SDS011;55463;52.324;5.122;2024-01-30T04:31:38;19.73;;;9.88;;
67274;SDS011;55463;52.324;5.122;2024-01-30T04:34:03;15.60;;;9.65;;
67274;SDS011;55463;52.324;5.122;2024-01-30T04:36:29;16.23;;;9.38;;
67274;SDS011;55463;52.324;5.122;2024-01-30T04:38:54;14.18;;;9.25;;
67274;SDS011;55463;52.324;5.122;2024-01-30T04:41:19;17.52;;;9.18;;
67274;SDS011;55463;52.324;5.122;2024-01-30T04:43:45;14.50;;;9.15;;
67274;SDS011;55463;52.324;5.122;2024-01-30T04:46:10;16.40;;;9.75;;
67274;SDS011;55463;52.324;5.122;2024-01-30T04:48:35;18.45;;;9.60;;
67274;SDS011;55463;52.324;5.122;2024-01-30T04:51:01;23.88;;;9.65;;
67274;SDS011;55463;52.324;5.122;2024-01-30T04:53:29;15.88;;;9.57;;
67274;SDS011;55463;52.324;5.122;2024-01-30T04:55:57;14.43;;;9.80;;
67274;SDS011;55463;52.324;5.122;2024-01-30T04:58:22;14.48;;;9.38;;
67274;SDS011;55463;52.324;5.122;2024-01-30T05:00:48;18.00;;;10.20;;
67274;SDS011;55463;52.324;5.122;2024-01-30T05:03:16;12.57;;;9.38;;
67274;SDS011;55463;52.324;5.122;2024-01-30T05:05:43;18.70;;;10.25;;
67274;SDS011;55463;52.324;5.122;2024-01-30T05:08:08;15.10;;;9.65;;
67274;SDS011;55463;52.324;5.122;2024-01-30T05:10:34;14.27;;;9.75;;
67274;SDS011;55463;52.324;5.122;2024-01-30T05:12:59;18.05;;;9.68;;
67274;SDS011;55463;52.324;5.122;2024-01-30T05:15:25;15.68;;;8.70;;
67274;SDS011;55463;52.324;5.122;2024-01-30T05:17:50;14.75;;;9.52;;
67274;SDS011;55463;52.324;5.122;2024-01-30T05:20:16;15.43;;;9.85;;
67274;SDS011;55463;52.324;5.122;2024-01-30T05:22:41;19.48;;;9.90;;
67274;SDS011;55463;52.324;5.122;2024-01-30T05:25:10;16.13;;;9.60;;
67274;SDS011;55463;52.324;5.122;2024-01-30T05:27:36;16.17;;;9.65;;
67274;SDS011;55463;52.324;5.122;2024-01-30T05:30:01;19.65;;;10.10;;
67274;SDS011;55463;52.324;5.122;2024-01-30T05:32:26;16.83;;;9.70;;
67274;SDS011;55463;52.324;5.122;2024-01-30T05:34:52;17.23;;;10.05;;
67274;SDS011;55463;52.324;5.122;2024-01-30T05:37:17;17.55;;;9.32;;
67274;SDS011;55463;52.324;5.122;2024-01-30T05:39:43;15.88;;;9.73;;
67274;SDS011;55463;52.324;5.122;2024-01-30T05:42:08;15.80;;;9.18;;
67274;SDS011;55463;52.324;5.122;2024-01-30T05:44:35;17.42;;;9.85;;
67274;SDS011;55463;52.324;5.122;2024-01-30T05:47:00;14.80;;;10.00;;
67274;SDS011;55463;52.324;5.122;2024-01-30T05:49:25;16.95;;;9.55;;
67274;SDS011;55463;52.324;5.122;2024-01-30T05:51:51;18.35;;;9.77;;
67274;SDS011;55463;52.324;5.122;2024-01-30T05:54:16;16.05;;;9.93;;
67274;SDS011;55463;52.324;5.122;2024-01-30T05:56:42;19.05;;;9.27;;
67274;SDS011;55463;52.324;5.122;2024-01-30T05:59:07;14.48;;;9.60;;
67274;SDS011;55463;52.324;5.122;2024-01-30T06:01:32;14.07;;;9.25;;
67274;SDS011;55463;52.324;5.122;2024-01-30T06:03:59;16.83;;;9.82;;
67274;SDS011;55463;52.324;5.122;2024-01-30T06:06:25;16.35;;;9.68;;
67274;SDS011;55463;52.324;5.122;2024-01-30T06:08:50;14.02;;;9.32;;
67274;SDS011;55463;52.324;5.122;2024-01-30T06:11:16;14.73;;;9.55;;
67274;SDS011;55463;52.324;5.122;2024-01-30T06:13:41;18.27;;;10.18;;
67274;SDS011;55463;52.324;5.122;2024-01-30T06:16:09;16.88;;;9.77;;
67274;SDS011;55463;52.324;5.122;2024-01-30T06:18:36;17.15;;;9.57;;
67274;SDS011;55463;52.324;5.122;2024-01-30T06:21:01;14.43;;;9.57;;
67274;SDS011;55463;52.324;5.122;2024-01-30T06:23:27;14.43;;;9.15;;
67274;SDS011;55463;52.324;5.122;2024-01-30T06:25:52;19.45;;;9.50;;
67274;SDS011;55463;52.324;5.122;2024-01-30T06:28:18;14.93;;;8.93;;
67274;SDS011;55463;52.324;5.122;2024-01-30T06:30:43;15.45;;;8.85;;
67274;SDS011;55463;52.324;5.122;2024-01-30T06:33:11;13.40;;;8.45;;
67274;SDS011;55463;52.324;5.122;2024-01-30T06:35:38;15.70;;;9.55;;
67274;SDS011;55463;52.324;5.122;2024-01-30T06:38:05;14.82;;;8.55;;
67274;SDS011;55463;52.324;5.122;2024-01-30T06:40:30;23.15;;;10.30;;
67274;SDS011;55463;52.324;5.122;2024-01-30T06:42:56;20.23;;;9.90;;
67274;SDS011;55463;52.324;5.122;2024-01-30T06:45:21;15.82;;;9.52;;
67274;SDS011;55463;52.324;5.122;2024-01-30T06:47:47;16.65;;;9.57;;
67274;SDS011;55463;52.324;5.122;2024-01-30T06:50:13;15.70;;;8.73;;
67274;SDS011;55463;52.324;5.122;2024-01-30T06:52:38;13.82;;;8.18;;
67274;SDS011;55463;52.324;5.122;2024-01-30T06:55:03;12.07;;;8.23;;
67274;SDS011;55463;52.324;5.122;2024-01-30T06:57:29;14.23;;;8.00;;
67274;SDS011;55463;52.324;5.122;2024-01-30T06:59:55;17.25;;;7.78;;
67274;SDS011;55463;52.324;5.122;2024-01-30T07:02:21;17.10;;;8.15;;
67274;SDS011;55463;52.324;5.122;2024-01-30T07:04:46;12.52;;;7.90;;
67274;SDS011;55463;52.324;5.122;2024-01-30T07:07:12;12.23;;;7.82;;
67274;SDS011;55463;52.324;5.122;2024-01-30T07:09:38;12.60;;;7.85;;
67274;SDS011;55463;52.324;5.122;2024-01-30T07:12:04;19.75;;;8.07;;
67274;SDS011;55463;52.324;5.122;2024-01-30T07:14:31;14.63;;;7.97;;
67274;SDS011;55463;52.324;5.122;2024-01-30T07:16:56;15.82;;;8.55;;
67274;SDS011;55463;52.324;5.122;2024-01-30T07:19:22;18.58;;;8.13;;
67274;SDS011;55463;52.324;5.122;2024-01-30T07:21:47;12.20;;;7.70;;
67274;SDS011;55463;52.324;5.122;2024-01-30T07:24:13;15.32;;;7.88;;
67274;SDS011;55463;52.324;5.122;2024-01-30T07:26:39;15.63;;;7.40;;
67274;SDS011;55463;52.324;5.122;2024-01-30T07:29:04;11.63;;;7.25;;
67274;SDS011;55463;52.324;5.122;2024-01-30T07:31:30;17.83;;;8.00;;
67274;SDS011;55463;52.324;5.122;2024-01-30T07:33:55;17.83;;;7.75;;
67274;SDS011;55463;52.324;5.122;2024-01-30T07:36:21;14.30;;;7.90;;
67274;SDS011;55463;52.324;5.122;2024-01-30T07:38:46;11.25;;;7.05;;
67274;SDS011;55463;52.324;5.122;2024-01-30T07:41:12;14.75;;;6.97;;
67274;SDS011;55463;52.324;5.122;2024-01-30T07:43:38;14.57;;;7.88;;
67274;SDS011;55463;52.324;5.122;2024-01-30T07:46:04;14.55;;;7.20;;
67274;SDS011;55463;52.324;5.122;2024-01-30T07:48:31;18.95;;;7.57;;
67274;SDS011;55463;52.324;5.122;2024-01-30T07:50:58;19.27;;;7.95;;
67274;SDS011;55463;52.324;5.122;2024-01-30T07:53:24;11.23;;;6.95;;
67274;SDS011;55463;52.324;5.122;2024-01-30T07:55:49;15.90;;;7.60;;
67274;SDS011;55463;52.324;5.122;2024-01-30T07:58:15;20.02;;;7.45;;
67274;SDS011;55463;52.324;5.122;2024-01-30T08:00:40;15.85;;;7.38;;
67274;SDS011;55463;52.324;5.122;2024-01-30T08:03:06;13.80;;;8.38;;
67274;SDS011;55463;52.324;5.122;2024-01-30T08:05:32;16.85;;;7.70;;
67274;SDS011;55463;52.324;5.122;2024-01-30T08:07:58;11.88;;;6.72;;
67274;SDS011;55463;52.324;5.122;2024-01-30T08:10:24;12.82;;;7.05;;
67274;SDS011;55463;52.324;5.122;2024-01-30T08:12:50;13.70;;;7.07;;
67274;SDS011;55463;52.324;5.122;2024-01-30T08:15:15;15.25;;;7.57;;
67274;SDS011;55463;52.324;5.122;2024-01-30T08:17:41;15.43;;;7.28;;
67274;SDS011;55463;52.324;5.122;2024-01-30T08:20:06;13.45;;;7.03;;
67274;SDS011;55463;52.324;5.122;2024-01-30T08:22:33;19.17;;;7.50;;
67274;SDS011;55463;52.324;5.122;2024-01-30T08:24:58;14.90;;;7.40;;
67274;SDS011;55463;52.324;5.122;2024-01-30T08:27:24;15.55;;;7.93;;
67274;SDS011;55463;52.324;5.122;2024-01-30T08:29:50;16.58;;;6.60;;
67274;SDS011;55463;52.324;5.122;2024-01-30T08:32:15;14.05;;;7.10;;
67274;SDS011;55463;52.324;5.122;2024-01-30T08:34:41;21.20;;;7.68;;
67274;SDS011;55463;52.324;5.122;2024-01-30T08:37:06;12.63;;;7.28;;
67274;SDS011;55463;52.324;5.122;2024-01-30T08:39:32;13.80;;;7.60;;
67274;SDS011;55463;52.324;5.122;2024-01-30T08:41:58;11.23;;;6.90;;
67274;SDS011;55463;52.324;5.122;2024-01-30T08:44:23;20.63;;;7.57;;
67274;SDS011;55463;52.324;5.122;2024-01-30T08:46:48;17.80;;;7.40;;
67274;SDS011;55463;52.324;5.122;2024-01-30T08:49:16;18.88;;;8.05;;
67274;SDS011;55463;52.324;5.122;2024-01-30T08:51:41;14.38;;;7.22;;
67274;SDS011;55463;52.324;5.122;2024-01-30T08:54:07;21.50;;;7.28;;
67274;SDS011;55463;52.324;5.122;2024-01-30T08:56:32;15.73;;;7.25;;
67274;SDS011;55463;52.324;5.122;2024-01-30T08:58:58;14.45;;;7.28;;
67274;SDS011;55463;52.324;5.122;2024-01-30T09:01:24;13.38;;;6.80;;
67274;SDS011;55463;52.324;5.122;2024-01-30T09:03:50;16.30;;;6.80;;
67274;SDS011;55463;52.324;5.122;2024-01-30T09:06:16;15.85;;;7.60;;
67274;SDS011;55463;52.324;5.122;2024-01-30T09:08:41;18.05;;;7.18;;
67274;SDS011;55463;52.324;5.122;2024-01-30T09:11:11;16.15;;;7.85;;
67274;SDS011;55463;52.324;5.122;2024-01-30T09:13:37;16.92;;;7.43;;
67274;SDS011;55463;52.324;5.122;2024-01-30T09:16:03;14.30;;;7.00;;
67274;SDS011;55463;52.324;5.122;2024-01-30T09:18:29;11.63;;;7.03;;
67274;SDS011;55463;52.324;5.122;2024-01-30T09:20:54;13.95;;;7.00;;
67274;SDS011;55463;52.324;5.122;2024-01-30T09:23:20;17.73;;;7.10;;
67274;SDS011;55463;52.324;5.122;2024-01-30T09:25:46;22.58;;;7.82;;
67274;SDS011;55463;52.324;5.122;2024-01-30T09:28:12;15.43;;;7.43;;
67274;SDS011;55463;52.324;5.122;2024-01-30T09:30:37;17.35;;;7.63;;
67274;SDS011;55463;52.324;5.122;2024-01-30T09:33:03;13.77;;;6.55;;
67274;SDS011;55463;52.324;5.122;2024-01-30T09:35:28;14.23;;;7.28;;
67274;SDS011;55463;52.324;5.122;2024-01-30T09:37:55;15.15;;;7.65;;
67274;SDS011;55463;52.324;5.122;2024-01-30T09:40:20;15.60;;;7.53;;
67274;SDS011;55463;52.324;5.122;2024-01-30T09:42:50;17.42;;;8.07;;
67274;SDS011;55463;52.324;5.122;2024-01-30T09:45:19;17.52;;;8.07;;
67274;SDS011;55463;52.324;5.122;2024-01-30T09:47:45;15.05;;;7.60;;
67274;SDS011;55463;52.324;5.122;2024-01-30T09:50:12;15.65;;;8.55;;
67274;SDS011;55463;52.324;5.122;2024-01-30T09:52:38;16.83;;;8.77;;
67274;SDS011;55463;52.324;5.122;2024-01-30T09:55:05;18.80;;;7.65;;
67274;SDS011;55463;52.324;5.122;2024-01-30T09:57:32;14.02;;;7.45;;
67274;SDS011;55463;52.324;5.122;2024-01-30T09:59:57;13.68;;;7.70;;
67274;SDS011;55463;52.324;5.122;2024-01-30T10:02:23;30.92;;;9.25;;
67274;SDS011;55463;52.324;5.122;2024-01-30T10:04:49;16.27;;;8.10;;
67274;SDS011;55463;52.324;5.122;2024-01-30T10:07:15;14.52;;;8.20;;
67274;SDS011;55463;52.324;5.122;2024-01-30T10:09:44;19.30;;;8.13;;
67274;SDS011;55463;52.324;5.122;2024-01-30T10:12:10;15.55;;;7.43;;
67274;SDS011;55463;52.324;5.122;2024-01-30T10:14:40;17.40;;;6.40;;
67274;SDS011;55463;52.324;5.122;2024-01-30T10:17:07;10.32;;;5.32;;
67274;SDS011;55463;52.324;5.122;2024-01-30T10:19:33;7.60;;;4.88;;
67274;SDS011;55463;52.324;5.122;2024-01-30T10:22:03;15.57;;;5.10;;
67274;SDS011;55463;52.324;5.122;2024-01-30T10:24:29;14.93;;;5.38;;
67274;SDS011;55463;52.324;5.122;2024-01-30T10:26:54;10.02;;;5.43;;
67274;SDS011;55463;52.324;5.122;2024-01-30T10:29:20;9.75;;;5.25;;
67274;SDS011;55463;52.324;5.122;2024-01-30T10:32:02;12.32;;;5.38;;
67274;SDS011;55463;52.324;5.122;2024-01-30T10:34:29;19.95;;;5.72;;
67274;SDS011;55463;52.324;5.122;2024-01-30T10:37:05;9.40;;;4.40;;
67274;SDS011;55463;52.324;5.122;2024-01-30T10:39:38;9.82;;;3.95;;
67274;SDS011;55463;52.324;5.122;2024-01-30T10:42:04;13.32;;;4.22;;
67274;SDS011;55463;52.324;5.122;2024-01-30T10:44:43;11.25;;;3.17;;
67274;SDS011;55463;52.324;5.122;2024-01-30T10:47:11;9.52;;;2.97;;
67274;SDS011;55463;52.324;5.122;2024-01-30T10:49:40;5.63;;;2.80;;
67274;SDS011;55463;52.324;5.122;2024-01-30T10:52:07;10.82;;;3.45;;
67274;SDS011;55463;52.324;5.122;2024-01-30T10:54:34;7.65;;;3.13;;
67274;SDS011;55463;52.324;5.122;2024-01-30T10:57:01;12.05;;;3.58;;
67274;SDS011;55463;52.324;5.122;2024-01-30T10:59:28;5.60;;;3.10;;
67274;SDS011;55463;52.324;5.122;2024-01-30T11:01:56;13.55;;;3.08;;
67274;SDS011;55463;52.324;5.122;2024-01-30T11:04:23;14.50;;;2.65;;
67274;SDS011;55463;52.324;5.122;2024-01-30T11:06:50;5.55;;;2.50;;
67274;SDS011;55463;52.324;5.122;2024-01-30T11:09:16;8.95;;;2.85;;
67274;SDS011;55463;52.324;5.122;2024-01-30T11:11:55;8.18;;;2.65;;
67274;SDS011;55463;52.324;5.122;2024-01-30T11:14:29;13.27;;;2.55;;
67274;SDS011;55463;52.324;5.122;2024-01-30T11:16:58;5.80;;;2.23;;
67274;SDS011;55463;52.324;5.122;2024-01-30T11:19:25;8.55;;;2.10;;
67274;SDS011;55463;52.324;5.122;2024-01-30T11:21:52;2.58;;;1.80;;
67274;SDS011;55463;52.324;5.122;2024-01-30T11:24:21;5.75;;;1.83;;
67274;SDS011;55463;52.324;5.122;2024-01-30T11:26:57;5.38;;;2.25;;
67274;SDS011;55463;52.324;5.122;2024-01-30T11:29:29;5.57;;;1.90;;
67274;SDS011;55463;52.324;5.122;2024-01-30T11:31:56;4.40;;;1.90;;
67274;SDS011;55463;52.324;5.122;2024-01-30T11:34:22;3.47;;;2.17;;
67274;SDS011;55463;52.324;5.122;2024-01-30T11:36:52;6.60;;;2.10;;
67274;SDS011;55463;52.324;5.122;2024-01-30T11:39:25;6.22;;;1.88;;
67274;SDS011;55463;52.324;5.122;2024-01-30T11:41:51;3.90;;;1.60;;
67274;SDS011;55463;52.324;5.122;2024-01-30T11:44:18;4.65;;;1.80;;
67274;SDS011;55463;52.324;5.122;2024-01-30T11:46:45;7.00;;;1.60;;
67274;SDS011;55463;52.324;5.122;2024-01-30T11:49:12;4.45;;;1.55;;
67274;SDS011;55463;52.324;5.122;2024-01-30T11:51:37;6.10;;;2.05;;
67274;SDS011;55463;52.324;5.122;2024-01-30T11:54:03;6.28;;;1.70;;
67274;SDS011;55463;52.324;5.122;2024-01-30T11:56:28;5.68;;;2.40;;
67274;SDS011;55463;52.324;5.122;2024-01-30T11:58:54;8.43;;;2.17;;
67274;SDS011;55463;52.324;5.122;2024-01-30T12:01:20;4.43;;;1.52;;
67274;SDS011;55463;52.324;5.122;2024-01-30T12:03:49;6.72;;;1.85;;
67274;SDS011;55463;52.324;5.122;2024-01-30T12:06:15;7.38;;;1.52;;
67274;SDS011;55463;52.324;5.122;2024-01-30T12:08:41;5.50;;;1.77;;
67274;SDS011;55463;52.324;5.122;2024-01-30T12:11:07;14.02;;;2.22;;
67274;SDS011;55463;52.324;5.122;2024-01-30T12:13:32;23.50;;;2.53;;
67274;SDS011;55463;52.324;5.122;2024-01-30T12:15:58;2.08;;;1.50;;
67274;SDS011;55463;52.324;5.122;2024-01-30T12:18:24;4.60;;;1.80;;
67274;SDS011;55463;52.324;5.122;2024-01-30T12:20:56;16.55;;;2.30;;
67274;SDS011;55463;52.324;5.122;2024-01-30T12:23:23;8.98;;;2.00;;
67274;SDS011;55463;52.324;5.122;2024-01-30T12:25:50;5.25;;;1.85;;
67274;SDS011;55463;52.324;5.122;2024-01-30T12:28:16;6.95;;;1.60;;
67274;SDS011;55463;52.324;5.122;2024-01-30T12:30:42;10.68;;;1.85;;
67274;SDS011;55463;52.324;5.122;2024-01-30T12:33:08;6.82;;;1.70;;
67274;SDS011;55463;52.324;5.122;2024-01-30T12:35:35;5.80;;;1.90;;
67274;SDS011;55463;52.324;5.122;2024-01-30T12:38:00;6.75;;;1.77;;
67274;SDS011;55463;52.324;5.122;2024-01-30T12:40:26;10.25;;;1.98;;
67274;SDS011;55463;52.324;5.122;2024-01-30T12:42:51;11.48;;;1.98;;
67274;SDS011;55463;52.324;5.122;2024-01-30T12:45:17;7.00;;;2.28;;
67274;SDS011;55463;52.324;5.122;2024-01-30T12:47:47;8.55;;;2.00;;
67274;SDS011;55463;52.324;5.122;2024-01-30T12:50:12;4.28;;;1.75;;
67274;SDS011;55463;52.324;5.122;2024-01-30T12:52:40;7.88;;;2.08;;
67274;SDS011;55463;52.324;5.122;2024-01-30T12:55:06;12.32;;;2.50;;
67274;SDS011;55463;52.324;5.122;2024-01-30T12:57:32;10.45;;;1.90;;
67274;SDS011;55463;52.324;5.122;2024-01-30T12:59:57;11.60;;;2.20;;
67274;SDS011;55463;52.324;5.122;2024-01-30T13:02:23;9.25;;;1.90;;
67274;SDS011;55463;52.324;5.122;2024-01-30T13:04:49;7.90;;;2.20;;
67274;SDS011;55463;52.324;5.122;2024-01-30T13:07:14;9.25;;;1.77;;
67274;SDS011;55463;52.324;5.122;2024-01-30T13:09:40;5.43;;;1.95;;
67274;SDS011;55463;52.324;5.122;2024-01-30T13:12:05;10.90;;;2.03;;
67274;SDS011;55463;52.324;5.122;2024-01-30T13:14:30;14.48;;;2.88;;
67274;SDS011;55463;52.324;5.122;2024-01-30T13:16:56;14.40;;;2.47;;
67274;SDS011;55463;52.324;5.122;2024-01-30T13:19:21;10.95;;;2.15;;
67274;SDS011;55463;52.324;5.122;2024-01-30T13:21:47;6.80;;;2.00;;
67274;SDS011;55463;52.324;5.122;2024-01-30T13:24:12;6.40;;;2.83;;
67274;SDS011;55463;52.324;5.122;2024-01-30T13:26:38;10.57;;;2.42;;
67274;SDS011;55463;52.324;5.122;2024-01-30T13:29:04;9.13;;;2.35;;
67274;SDS011;55463;52.324;5.122;2024-01-30T13:31:30;8.27;;;2.17;;
67274;SDS011;55463;52.324;5.122;2024-01-30T13:33:55;12.68;;;2.47;;
67274;SDS011;55463;52.324;5.122;2024-01-30T13:36:21;10.05;;;2.20;;
67274;SDS011;55463;52.324;5.122;2024-01-30T13:38:47;9.30;;;2.17;;
67274;SDS011;55463;52.324;5.122;2024-01-30T13:41:13;13.00;;;3.13;;
67274;SDS011;55463;52.324;5.122;2024-01-30T13:43:39;9.80;;;2.83;;
67274;SDS011;55463;52.324;5.122;2024-01-30T13:46:04;8.02;;;2.40;;
67274;SDS011;55463;52.324;5.122;2024-01-30T13:48:30;10.20;;;2.67;;
67274;SDS011;55463;52.324;5.122;2024-01-30T13:50:56;12.48;;;3.05;;
67274;SDS011;55463;52.324;5.122;2024-01-30T13:53:22;13.23;;;3.58;;
67274;SDS011;55463;52.324;5.122;2024-01-30T13:55:48;17.02;;;3.92;;
67274;SDS011;55463;52.324;5.122;2024-01-30T13:58:13;9.73;;;2.95;;
67274;SDS011;55463;52.324;5.122;2024-01-30T14:00:39;7.70;;;3.47;;
67274;SDS011;55463;52.324;5.122;2024-01-30T14:03:04;8.40;;;3.15;;
67274;SDS011;55463;52.324;5.122;2024-01-30T14:05:30;6.63;;;3.72;;
67274;SDS011;55463;52.324;5.122;2024-01-30T14:07:56;4.10;;;3.20;;
67274;SDS011;55463;52.324;5.122;2024-01-30T14:10:23;6.60;;;3.22;;
67274;SDS011;55463;52.324;5.122;2024-01-30T14:12:49;7.80;;;3.40;;
67274;SDS011;55463;52.324;5.122;2024-01-30T14:15:14;3.50;;;3.20;;
67274;SDS011;55463;52.324;5.122;2024-01-30T14:17:40;4.35;;;3.20;;
67274;SDS011;55463;52.324;5.122;2024-01-30T14:20:06;5.72;;;3.47;;
67274;SDS011;55463;52.324;5.122;2024-01-30T14:22:34;5.85;;;3.50;;
67274;SDS011;55463;52.324;5.122;2024-01-30T14:25:02;6.78;;;3.78;;
67274;SDS011;55463;52.324;5.122;2024-01-30T14:27:30;5.45;;;3.33;;